sensor_id;sensor_type;location;lat;lon;timestamp;pressure;altitude;pressure_sealevel;temperature;humidity
32452;BME280;45528;52.102;5.242;2023-02-11T00:00:14;102995.0;;;14.09;54.79
32452;BME280;45528;52.102;5.242;2023-02-11T00:01:51;103003.0;;;14.04;55.08
32452;BME280;45528;52.102;5.242;2023-02-11T00:03:28;102996.0;;;14.17;54.57
32452;BME280;45528;52.102;5.242;2023-02-11T00:06:41;102993.0;;;13.92;55.19
32452;BME280;45528;52.102;5.242;2023-02-11T00:08:17;102983.99999999999;;;13.56;56.07
32452;BME280;45528;52.102;5.242;2023-02-11T00:09:53;102982.0;;;14.16;54.75
32452;BME280;45528;52.102;5.242;2023-02-11T00:13:06;102979.0;;;14.1;54.43
32452;BME280;45528;52.102;5.242;2023-02-11T00:14:42;102978.0;;;14.17;54.67
32452;BME280;45528;52.102;5.242;2023-02-11T00:16:19;102976.0;;;13.99;55.11
32452;BME280;45528;52.102;5.242;2023-02-11T00:19:32;102979.0;;;14.14;54.85
32452;BME280;45528;52.102;5.242;2023-02-11T00:21:10;102982.0;;;13.97;55.25
32452;BME280;45528;52.102;5.242;2023-02-11T00:22:47;102982.0;;;13.85;55.57
32452;BME280;45528;52.102;5.242;2023-02-11T00:24:24;102979.0;;;13.81;55.83
32452;BME280;45528;52.102;5.242;2023-02-11T00:27:37;102980.0;;;13.85;55.64
32452;BME280;45528;52.102;5.242;2023-02-11T00:29:13;102977.0;;;13.97;55.31
32452;BME280;45528;52.102;5.242;2023-02-11T00:30:53;102969.0;;;13.92;55.46
32452;BME280;45528;52.102;5.242;2023-02-11T00:34:06;102976.0;;;13.95;55.13
32452;BME280;45528;52.102;5.242;2023-02-11T00:35:42;102979.0;;;14.09;54.89
32452;BME280;45528;52.102;5.242;2023-02-11T00:37:18;102977.0;;;13.9;55.55
32452;BME280;45528;52.102;5.242;2023-02-11T00:38:55;102974.0;;;13.9;55.35
32452;BME280;45528;52.102;5.242;2023-02-11T00:42:11;102977.0;;;13.82;55.51
32452;BME280;45528;52.102;5.242;2023-02-11T00:43:49;102983.0;;;14.18;54.94
32452;BME280;45528;52.102;5.242;2023-02-11T00:45:26;102983.0;;;14.16;54.89
32452;BME280;45528;52.102;5.242;2023-02-11T00:48:41;102990.00000000001;;;14.17;54.7
32452;BME280;45528;52.102;5.242;2023-02-11T00:50:17;102996.0;;;14.25;54.6
32452;BME280;45528;52.102;5.242;2023-02-11T00:51:54;102996.0;;;14.28;54.58
32452;BME280;45528;52.102;5.242;2023-02-11T00:55:08;102996.0;;;14.08;55.18
32452;BME280;45528;52.102;5.242;2023-02-11T00:56:44;102986.99999999999;;;13.94;55.47
32452;BME280;45528;52.102;5.242;2023-02-11T00:58:21;102983.99999999999;;;13.88;55.59
32452;BME280;45528;52.102;5.242;2023-02-11T00:59:57;102984.99999999999;;;14.29;54.66
32452;BME280;45528;52.102;5.242;2023-02-11T01:03:10;102974.0;;;14.13;54.73
32452;BME280;45528;52.102;5.242;2023-02-11T01:04:47;102972.0;;;14.28;54.7
32452;BME280;45528;52.102;5.242;2023-02-11T01:06:23;102968.0;;;13.99;55.09
32452;BME280;45528;52.102;5.242;2023-02-11T01:09:36;102965.00000000001;;;14.02;55.16
32452;BME280;45528;52.102;5.242;2023-02-11T01:11:17;102967.0;;;14.3;54.61
32452;BME280;45528;52.102;5.242;2023-02-11T01:12:53;102958.99999999999;;;14.16;54.8
32452;BME280;45528;52.102;5.242;2023-02-11T01:14:30;102958.0;;;14.25;54.58
32452;BME280;45528;52.102;5.242;2023-02-11T01:17:45;102958.99999999999;;;14.13;54.76
32452;BME280;45528;52.102;5.242;2023-02-11T01:19:21;102958.99999999999;;;14.18;54.89
32452;BME280;45528;52.102;5.242;2023-02-11T01:20:57;102955.0;;;13.8;55.89
32452;BME280;45528;52.102;5.242;2023-02-11T01:24:12;102956.0;;;14.04;55.33
32452;BME280;45528;52.102;5.242;2023-02-11T01:25:49;102949.0;;;14.01;55.16
32452;BME280;45528;52.102;5.242;2023-02-11T01:27:26;102933.99999999999;;;13.89;55.33
32452;BME280;45528;52.102;5.242;2023-02-11T01:30:38;102933.0;;;14.05;54.99
32452;BME280;45528;52.102;5.242;2023-02-11T01:32:14;102938.00000000001;;;13.82;55.75
32452;BME280;45528;52.102;5.242;2023-02-11T01:33:50;102941.00000000001;;;13.54;56.53
32452;BME280;45528;52.102;5.242;2023-02-11T01:35:27;102947.0;;;13.82;55.82
32452;BME280;45528;52.102;5.242;2023-02-11T01:38:40;102958.99999999999;;;13.85;55.6
32452;BME280;45528;52.102;5.242;2023-02-11T01:40:16;102966.00000000001;;;13.64;56.22
32452;BME280;45528;52.102;5.242;2023-02-11T01:41:53;102965.00000000001;;;13.83;55.88
32452;BME280;45528;52.102;5.242;2023-02-11T01:45:56;102963.00000000001;;;13.98;55.23
32452;BME280;45528;52.102;5.242;2023-02-11T01:48:46;102958.99999999999;;;13.79;55.62
32452;BME280;45528;52.102;5.242;2023-02-11T01:50:25;102966.00000000001;;;13.62;56.11
32452;BME280;45528;52.102;5.242;2023-02-11T01:57:59;102948.0;;;13.7;55.52
32452;BME280;45528;52.102;5.242;2023-02-11T01:59:40;102957.0;;;13.78;55.13
32452;BME280;45528;52.102;5.242;2023-02-11T02:01:27;102964.00000000001;;;13.53;55.76
32452;BME280;45528;52.102;5.242;2023-02-11T02:03:10;102964.00000000001;;;13.52;55.64
32452;BME280;45528;52.102;5.242;2023-02-11T02:04:52;102965.00000000001;;;13.53;55.61
32452;BME280;45528;52.102;5.242;2023-02-11T02:08:28;102963.00000000001;;;13.38;56.11
32452;BME280;45528;52.102;5.242;2023-02-11T02:10:24;102967.0;;;13.34;56.04
32452;BME280;45528;52.102;5.242;2023-02-11T02:12:02;102961.99999999999;;;13.36;56.28
32452;BME280;45528;52.102;5.242;2023-02-11T02:13:39;102965.00000000001;;;13.34;56.25
32452;BME280;45528;52.102;5.242;2023-02-11T02:15:23;102958.99999999999;;;13.31;56.41
32452;BME280;45528;52.102;5.242;2023-02-11T02:18:42;102958.0;;;13.22;56.51
32452;BME280;45528;52.102;5.242;2023-02-11T02:22:16;102959.99999999999;;;13.19;56.55
32452;BME280;45528;52.102;5.242;2023-02-11T02:23:27;102958.0;;;13.11;56.77
32452;BME280;45528;52.102;5.242;2023-02-11T02:25:18;102958.99999999999;;;13.09;56.67
32452;BME280;45528;52.102;5.242;2023-02-11T02:27:35;102964.00000000001;;;13.14;56.52
32452;BME280;45528;52.102;5.242;2023-02-11T02:33:05;102958.0;;;13.04;56.88
32452;BME280;45528;52.102;5.242;2023-02-11T02:35:06;102958.99999999999;;;13.14;56.59
32452;BME280;45528;52.102;5.242;2023-02-11T02:36:50;102957.0;;;13.08;56.9
32452;BME280;45528;52.102;5.242;2023-02-11T02:38:36;102952.0;;;13.14;56.83
32452;BME280;45528;52.102;5.242;2023-02-11T02:40:19;102947.0;;;13.0;56.89
32452;BME280;45528;52.102;5.242;2023-02-11T02:43:36;102943.0;;;13.05;56.95
32452;BME280;45528;52.102;5.242;2023-02-11T02:45:16;102938.00000000001;;;12.98;57.18
32452;BME280;45528;52.102;5.242;2023-02-11T02:46:54;102933.99999999999;;;12.98;57.14
32452;BME280;45528;52.102;5.242;2023-02-11T02:50:09;102938.00000000001;;;12.9;57.56
32452;BME280;45528;52.102;5.242;2023-02-11T02:54:07;102942.0;;;13.16;57.05
32452;BME280;45528;52.102;5.242;2023-02-11T02:56:03;102945.0;;;13.27;56.79
32452;BME280;45528;52.102;5.242;2023-02-11T02:58:00;102953.0;;;13.43;56.47
32452;BME280;45528;52.102;5.242;2023-02-11T02:59:50;102952.0;;;13.25;56.72
32452;BME280;45528;52.102;5.242;2023-02-11T03:01:42;102947.0;;;13.15;56.94
32452;BME280;45528;52.102;5.242;2023-02-11T03:03:33;102947.0;;;13.3;56.77
32452;BME280;45528;52.102;5.242;2023-02-11T03:06:59;102947.0;;;12.92;57.4
32452;BME280;45528;52.102;5.242;2023-02-11T03:08:45;102942.0;;;13.12;57.43
32452;BME280;45528;52.102;5.242;2023-02-11T03:10:27;102944.0;;;13.28;56.92
32452;BME280;45528;52.102;5.242;2023-02-11T03:12:05;102942.0;;;13.3;56.78
32452;BME280;45528;52.102;5.242;2023-02-11T03:15:24;102942.0;;;13.17;57.05
32452;BME280;45528;52.102;5.242;2023-02-11T03:17:04;102942.0;;;13.25;57.05
32452;BME280;45528;52.102;5.242;2023-02-11T03:18:46;102938.00000000001;;;13.27;57.03
32452;BME280;45528;52.102;5.242;2023-02-11T03:20:29;102929.0;;;13.29;56.88
32452;BME280;45528;52.102;5.242;2023-02-11T03:22:12;102929.0;;;13.09;57.33
32452;BME280;45528;52.102;5.242;2023-02-11T03:25:34;102926.0;;;13.09;57.27
32452;BME280;45528;52.102;5.242;2023-02-11T03:27:19;102918.0;;;13.12;57.22
32452;BME280;45528;52.102;5.242;2023-02-11T03:29:02;102917.0;;;13.13;57.07
32452;BME280;45528;52.102;5.242;2023-02-11T03:30:47;102911.99999999999;;;13.08;57.37
32452;BME280;45528;52.102;5.242;2023-02-11T03:34:16;102909.99999999999;;;12.94;57.77
32452;BME280;45528;52.102;5.242;2023-02-11T03:35:56;102915.00000000001;;;13.09;57.18
32452;BME280;45528;52.102;5.242;2023-02-11T03:37:37;102916.00000000001;;;13.03;57.37
32452;BME280;45528;52.102;5.242;2023-02-11T03:39:20;102918.0;;;13.01;57.47
32452;BME280;45528;52.102;5.242;2023-02-11T03:41:01;102913.00000000001;;;12.7;58.45
32452;BME280;45528;52.102;5.242;2023-02-11T03:44:21;102915.00000000001;;;12.9;57.93
32452;BME280;45528;52.102;5.242;2023-02-11T03:46:02;102914.00000000001;;;12.94;57.82
32452;BME280;45528;52.102;5.242;2023-02-11T03:47:44;102915.00000000001;;;13.06;57.57
32452;BME280;45528;52.102;5.242;2023-02-11T03:49:26;102908.0;;;12.87;58.18
32452;BME280;45528;52.102;5.242;2023-02-11T03:52:44;102902.0;;;12.88;57.95
32452;BME280;45528;52.102;5.242;2023-02-11T03:54:26;102899.0;;;12.76;58.53
32452;BME280;45528;52.102;5.242;2023-02-11T03:56:07;102900.0;;;12.83;57.98
32452;BME280;45528;52.102;5.242;2023-02-11T03:57:46;102898.0;;;12.59;58.91
32452;BME280;45528;52.102;5.242;2023-02-11T04:01:01;102892.0;;;12.61;58.16
32452;BME280;45528;52.102;5.242;2023-02-11T04:02:41;102895.0;;;12.81;58.17
32452;BME280;45528;52.102;5.242;2023-02-11T04:04:19;102901.0;;;12.69;58.45
32452;BME280;45528;52.102;5.242;2023-02-11T04:07:31;102901.0;;;12.59;59.11
32452;BME280;45528;52.102;5.242;2023-02-11T04:09:08;102904.0;;;12.73;58.91
32452;BME280;45528;52.102;5.242;2023-02-11T04:10:44;102913.00000000001;;;12.74;58.89
32452;BME280;45528;52.102;5.242;2023-02-11T04:12:21;102911.99999999999;;;12.98;58.56
32452;BME280;45528;52.102;5.242;2023-02-11T04:15:33;102908.99999999999;;;13.07;57.95
32452;BME280;45528;52.102;5.242;2023-02-11T04:17:09;102905.0;;;12.87;58.83
32452;BME280;45528;52.102;5.242;2023-02-11T04:18:46;102906.0;;;13.04;58.4
32452;BME280;45528;52.102;5.242;2023-02-11T04:21:59;102908.0;;;12.94;58.79
32452;BME280;45528;52.102;5.242;2023-02-11T04:23:36;102907.0;;;13.05;58.49
32452;BME280;45528;52.102;5.242;2023-02-11T04:25:13;102905.0;;;13.07;58.71
32452;BME280;45528;52.102;5.242;2023-02-11T04:28:28;102909.99999999999;;;13.1;58.51
32452;BME280;45528;52.102;5.242;2023-02-11T04:30:06;102917.0;;;13.12;58.55
32452;BME280;45528;52.102;5.242;2023-02-11T04:31:44;102916.00000000001;;;12.91;59.37
32452;BME280;45528;52.102;5.242;2023-02-11T04:33:22;102921.0;;;12.81;59.25
32452;BME280;45528;52.102;5.242;2023-02-11T04:36:35;102929.0;;;12.99;59.21
32452;BME280;45528;52.102;5.242;2023-02-11T04:38:11;102927.0;;;13.05;58.92
32452;BME280;45528;52.102;5.242;2023-02-11T04:39:48;102926.0;;;13.21;58.59
32452;BME280;45528;52.102;5.242;2023-02-11T04:43:00;102926.0;;;12.93;59.2
32452;BME280;45528;52.102;5.242;2023-02-11T04:44:37;102925.0;;;13.26;58.45
32452;BME280;45528;52.102;5.242;2023-02-11T04:46:13;102920.0;;;13.37;58.24
32452;BME280;45528;52.102;5.242;2023-02-11T04:49:25;102919.0;;;13.35;58.01
32452;BME280;45528;52.102;5.242;2023-02-11T04:51:01;102925.0;;;13.41;57.91
32452;BME280;45528;52.102;5.242;2023-02-11T04:52:38;102923.0;;;13.49;57.67
32452;BME280;45528;52.102;5.242;2023-02-11T04:54:15;102928.0;;;13.09;58.65
32452;BME280;45528;52.102;5.242;2023-02-11T04:57:28;102927.0;;;13.43;58.15
32452;BME280;45528;52.102;5.242;2023-02-11T04:59:05;102927.0;;;13.36;58.45
32452;BME280;45528;52.102;5.242;2023-02-11T05:00:42;102924.0;;;13.57;57.8
32452;BME280;45528;52.102;5.242;2023-02-11T05:03:55;102922.0;;;13.5;58.18
32452;BME280;45528;52.102;5.242;2023-02-11T05:05:32;102928.0;;;13.5;58.19
32452;BME280;45528;52.102;5.242;2023-02-11T05:07:08;102932.0;;;13.59;58.06
32452;BME280;45528;52.102;5.242;2023-02-11T05:10:20;102926.0;;;13.47;58.13
32452;BME280;45528;52.102;5.242;2023-02-11T05:11:57;102932.0;;;13.07;59.78
32452;BME280;45528;52.102;5.242;2023-02-11T05:13:33;102924.0;;;13.08;60.02
32452;BME280;45528;52.102;5.242;2023-02-11T05:15:09;102927.0;;;13.03;60.65
32452;BME280;45528;52.102;5.242;2023-02-11T05:18:21;102923.0;;;13.51;59.45
32452;BME280;45528;52.102;5.242;2023-02-11T05:19:58;102922.0;;;13.48;59.48
32452;BME280;45528;52.102;5.242;2023-02-11T05:21:34;102930.0;;;13.61;58.99
32452;BME280;45528;52.102;5.242;2023-02-11T05:24:47;102927.0;;;13.9;58.26
32452;BME280;45528;52.102;5.242;2023-02-11T05:26:23;102931.0;;;13.86;58.31
32452;BME280;45528;52.102;5.242;2023-02-11T05:28:01;102932.0;;;13.85;58.29
32452;BME280;45528;52.102;5.242;2023-02-11T05:31:14;102933.0;;;13.82;58.67
32452;BME280;45528;52.102;5.242;2023-02-11T05:32:49;102931.0;;;13.88;58.34
32452;BME280;45528;52.102;5.242;2023-02-11T05:34:26;102933.99999999999;;;13.89;58.23
32452;BME280;45528;52.102;5.242;2023-02-11T05:36:05;102928.0;;;13.56;59.16
32452;BME280;45528;52.102;5.242;2023-02-11T05:39:19;102933.0;;;13.91;58.35
32452;BME280;45528;52.102;5.242;2023-02-11T05:40:56;102936.99999999999;;;13.75;58.57
32452;BME280;45528;52.102;5.242;2023-02-11T05:42:32;102930.0;;;13.91;58.28
32452;BME280;45528;52.102;5.242;2023-02-11T05:45:45;102933.0;;;13.91;58.12
32452;BME280;45528;52.102;5.242;2023-02-11T05:47:21;102929.0;;;13.93;57.88
32452;BME280;45528;52.102;5.242;2023-02-11T05:48:57;102926.0;;;13.85;58.07
32452;BME280;45528;52.102;5.242;2023-02-11T05:52:09;102925.0;;;13.59;58.98
32452;BME280;45528;52.102;5.242;2023-02-11T05:53:46;102921.0;;;13.8;58.02
32452;BME280;45528;52.102;5.242;2023-02-11T05:55:23;102918.0;;;13.77;58.55
32452;BME280;45528;52.102;5.242;2023-02-11T05:56:59;102921.0;;;13.96;57.99
32452;BME280;45528;52.102;5.242;2023-02-11T06:00:13;102923.0;;;14.05;57.8
32452;BME280;45528;52.102;5.242;2023-02-11T06:01:50;102925.0;;;13.8;58.24
32452;BME280;45528;52.102;5.242;2023-02-11T06:03:27;102930.0;;;13.66;58.81
32452;BME280;45528;52.102;5.242;2023-02-11T06:06:39;102931.0;;;13.91;58.24
32452;BME280;45528;52.102;5.242;2023-02-11T06:08:15;102931.0;;;13.78;58.7
32452;BME280;45528;52.102;5.242;2023-02-11T06:09:51;102928.0;;;13.99;58.1
32452;BME280;45528;52.102;5.242;2023-02-11T06:13:03;102928.0;;;13.91;58.12
32452;BME280;45528;52.102;5.242;2023-02-11T06:14:40;102933.99999999999;;;13.94;58.28
32452;BME280;45528;52.102;5.242;2023-02-11T06:16:16;102938.00000000001;;;13.89;58.27
32452;BME280;45528;52.102;5.242;2023-02-11T06:17:52;102942.0;;;13.69;58.85
32452;BME280;45528;52.102;5.242;2023-02-11T06:21:06;102943.0;;;13.89;58.67
32452;BME280;45528;52.102;5.242;2023-02-11T06:22:43;102942.0;;;14.0;58.42
32452;BME280;45528;52.102;5.242;2023-02-11T06:24:19;102941.00000000001;;;14.09;58.08
32452;BME280;45528;52.102;5.242;2023-02-11T06:27:38;102939.00000000001;;;14.18;57.95
32452;BME280;45528;52.102;5.242;2023-02-11T06:29:14;102939.00000000001;;;14.14;57.92
32452;BME280;45528;52.102;5.242;2023-02-11T06:30:50;102941.00000000001;;;13.98;58.53
32452;BME280;45528;52.102;5.242;2023-02-11T06:34:04;102942.0;;;14.07;57.96
32452;BME280;45528;52.102;5.242;2023-02-11T06:35:40;102942.0;;;14.12;57.85
32452;BME280;45528;52.102;5.242;2023-02-11T06:37:16;102946.0;;;14.18;57.81
32452;BME280;45528;52.102;5.242;2023-02-11T06:38:52;102944.0;;;13.97;58.1
32452;BME280;45528;52.102;5.242;2023-02-11T06:42:06;102949.0;;;13.84;58.78
32452;BME280;45528;52.102;5.242;2023-02-11T06:43:42;102947.0;;;14.0;58.39
32452;BME280;45528;52.102;5.242;2023-02-11T06:45:19;102947.0;;;13.65;58.84
32452;BME280;45528;52.102;5.242;2023-02-11T06:48:33;102942.0;;;13.57;59.1
32452;BME280;45528;52.102;5.242;2023-02-11T06:50:12;102950.0;;;14.0;58.27
32452;BME280;45528;52.102;5.242;2023-02-11T06:51:49;102945.0;;;14.12;58.06
32452;BME280;45528;52.102;5.242;2023-02-11T06:53:25;102940.00000000001;;;14.12;58.07
32452;BME280;45528;52.102;5.242;2023-02-11T06:56:39;102941.00000000001;;;14.17;57.79
32452;BME280;45528;52.102;5.242;2023-02-11T06:58:16;102934.99999999999;;;14.14;58.08
32452;BME280;45528;52.102;5.242;2023-02-11T06:59:52;102930.0;;;14.03;58.16
32452;BME280;45528;52.102;5.242;2023-02-11T07:03:05;102927.0;;;13.89;58.82
32452;BME280;45528;52.102;5.242;2023-02-11T07:04:41;102933.99999999999;;;13.89;58.85
32452;BME280;45528;52.102;5.242;2023-02-11T07:06:19;102942.0;;;14.11;58.18
32452;BME280;45528;52.102;5.242;2023-02-11T07:09:32;102943.0;;;13.8;59.1
32452;BME280;45528;52.102;5.242;2023-02-11T07:11:09;102948.0;;;14.19;58.04
32452;BME280;45528;52.102;5.242;2023-02-11T07:12:47;102948.0;;;14.23;57.68
32452;BME280;45528;52.102;5.242;2023-02-11T07:14:23;102954.0;;;13.95;58.67
32452;BME280;45528;52.102;5.242;2023-02-11T07:17:41;102954.0;;;14.19;58.23
32452;BME280;45528;52.102;5.242;2023-02-11T07:19:18;102959.99999999999;;;13.91;58.76
32452;BME280;45528;52.102;5.242;2023-02-11T07:20:54;102967.0;;;13.85;59.02
32452;BME280;45528;52.102;5.242;2023-02-11T07:24:06;102965.00000000001;;;14.23;58.07
32452;BME280;45528;52.102;5.242;2023-02-11T07:25:45;102963.00000000001;;;14.05;58.62
32452;BME280;45528;52.102;5.242;2023-02-11T07:27:21;102967.0;;;14.12;58.33
32452;BME280;45528;52.102;5.242;2023-02-11T07:30:33;102965.00000000001;;;14.05;58.7
32452;BME280;45528;52.102;5.242;2023-02-11T07:32:11;102965.00000000001;;;14.01;58.68
32452;BME280;45528;52.102;5.242;2023-02-11T07:33:47;102969.0;;;13.94;59.27
32452;BME280;45528;52.102;5.242;2023-02-11T07:35:24;102973.0;;;13.93;58.86
32452;BME280;45528;52.102;5.242;2023-02-11T07:38:36;102977.0;;;14.31;58.14
32452;BME280;45528;52.102;5.242;2023-02-11T07:40:14;102976.0;;;14.36;58.14
32452;BME280;45528;52.102;5.242;2023-02-11T07:41:50;102980.0;;;14.24;58.31
32452;BME280;45528;52.102;5.242;2023-02-11T07:45:04;102982.0;;;14.32;58.32
32452;BME280;45528;52.102;5.242;2023-02-11T07:46:43;102982.0;;;14.27;58.58
32452;BME280;45528;52.102;5.242;2023-02-11T07:48:19;102988.00000000001;;;14.33;58.08
32452;BME280;45528;52.102;5.242;2023-02-11T07:49:55;102989.00000000001;;;14.21;58.56
32452;BME280;45528;52.102;5.242;2023-02-11T07:53:08;102988.00000000001;;;14.32;58.65
32452;BME280;45528;52.102;5.242;2023-02-11T07:54:44;102989.00000000001;;;14.41;58.29
32452;BME280;45528;52.102;5.242;2023-02-11T07:56:23;102988.00000000001;;;14.59;57.81
32452;BME280;45528;52.102;5.242;2023-02-11T07:59:35;102982.0;;;14.48;58.12
32452;BME280;45528;52.102;5.242;2023-02-11T08:01:16;102982.0;;;14.59;57.66
32452;BME280;45528;52.102;5.242;2023-02-11T08:02:52;102978.0;;;14.37;58.26
32452;BME280;45528;52.102;5.242;2023-02-11T08:06:06;102979.0;;;14.58;57.73
32452;BME280;45528;52.102;5.242;2023-02-11T08:07:42;102981.0;;;14.54;57.83
32452;BME280;45528;52.102;5.242;2023-02-11T08:09:19;102983.99999999999;;;14.61;57.72
32452;BME280;45528;52.102;5.242;2023-02-11T08:10:55;102992.0;;;14.43;58.38
32452;BME280;45528;52.102;5.242;2023-02-11T08:14:09;102996.0;;;14.58;57.81
32452;BME280;45528;52.102;5.242;2023-02-11T08:15:45;102998.0;;;14.56;58.08
32452;BME280;45528;52.102;5.242;2023-02-11T08:17:21;102995.0;;;14.56;57.76
32452;BME280;45528;52.102;5.242;2023-02-11T08:20:37;102999.0;;;14.83;57.22
32452;BME280;45528;52.102;5.242;2023-02-11T08:22:13;102999.0;;;14.83;57.2
32452;BME280;45528;52.102;5.242;2023-02-11T08:23:49;102998.0;;;14.86;57.06
32452;BME280;45528;52.102;5.242;2023-02-11T08:27:03;103003.0;;;14.78;57.32
32452;BME280;45528;52.102;5.242;2023-02-11T08:28:40;102998.0;;;14.79;57.26
32452;BME280;45528;52.102;5.242;2023-02-11T08:30:18;102997.0;;;14.8;57.2
32452;BME280;45528;52.102;5.242;2023-02-11T08:31:54;103001.0;;;14.76;57.5
32452;BME280;45528;52.102;5.242;2023-02-11T08:35:07;103000.0;;;14.6;57.95
32452;BME280;45528;52.102;5.242;2023-02-11T08:36:45;103007.0;;;14.46;58.69
32452;BME280;45528;52.102;5.242;2023-02-11T08:38:21;103008.0;;;14.61;58.26
32452;BME280;45528;52.102;5.242;2023-02-11T08:41:34;103008.0;;;14.52;58.51
32452;BME280;45528;52.102;5.242;2023-02-11T08:43:10;103014.00000000001;;;14.59;58.29
32452;BME280;45528;52.102;5.242;2023-02-11T08:44:46;103016.00000000001;;;14.86;57.65
32452;BME280;45528;52.102;5.242;2023-02-11T08:48:00;103015.00000000001;;;14.99;57.25
32452;BME280;45528;52.102;5.242;2023-02-11T08:49:36;103019.0;;;15.07;57.17
32452;BME280;45528;52.102;5.242;2023-02-11T08:51:15;103023.0;;;15.14;57.01
32452;BME280;45528;52.102;5.242;2023-02-11T08:52:52;103018.0;;;15.29;56.77
32452;BME280;45528;52.102;5.242;2023-02-11T08:56:06;103022.0;;;15.17;56.85
32452;BME280;45528;52.102;5.242;2023-02-11T08:57:45;103018.0;;;15.29;56.56
32452;BME280;45528;52.102;5.242;2023-02-11T08:59:21;103011.99999999999;;;15.07;57.29
32452;BME280;45528;52.102;5.242;2023-02-11T09:02:34;103021.0;;;14.95;57.86
32452;BME280;45528;52.102;5.242;2023-02-11T09:04:10;103016.00000000001;;;14.84;57.67
32452;BME280;45528;52.102;5.242;2023-02-11T09:05:48;103022.0;;;15.23;57.01
32452;BME280;45528;52.102;5.242;2023-02-11T09:07:25;103025.0;;;15.11;57.51
32452;BME280;45528;52.102;5.242;2023-02-11T09:10:39;103023.0;;;15.23;57.13
32452;BME280;45528;52.102;5.242;2023-02-11T09:12:15;103030.0;;;15.27;57.16
32452;BME280;45528;52.102;5.242;2023-02-11T09:13:51;103027.0;;;15.44;56.84
32452;BME280;45528;52.102;5.242;2023-02-11T09:17:05;103039.00000000001;;;14.99;57.35
32452;BME280;45528;52.102;5.242;2023-02-11T09:18:41;103041.00000000001;;;15.24;56.92
32452;BME280;45528;52.102;5.242;2023-02-11T09:20:17;103034.99999999999;;;15.36;56.7
32452;BME280;45528;52.102;5.242;2023-02-11T09:23:34;103034.99999999999;;;15.49;56.38
32452;BME280;45528;52.102;5.242;2023-02-11T09:25:10;103047.0;;;15.48;56.49
32452;BME280;45528;52.102;5.242;2023-02-11T09:26:48;103048.0;;;15.35;56.7
32452;BME280;45528;52.102;5.242;2023-02-11T09:28:25;103048.0;;;15.45;56.53
32452;BME280;45528;52.102;5.242;2023-02-11T09:31:38;103051.0;;;15.43;56.56
32452;BME280;45528;52.102;5.242;2023-02-11T09:33:14;103052.0;;;15.45;56.55
32452;BME280;45528;52.102;5.242;2023-02-11T09:34:51;103045.0;;;15.51;56.73
32452;BME280;45528;52.102;5.242;2023-02-11T09:38:06;103045.0;;;15.83;55.75
32452;BME280;45528;52.102;5.242;2023-02-11T09:39:44;103047.0;;;15.65;55.98
32452;BME280;45528;52.102;5.242;2023-02-11T09:42:02;103055.0;;;15.69;56.15
32452;BME280;45528;52.102;5.242;2023-02-11T09:43:43;103055.0;;;15.66;55.96
32452;BME280;45528;52.102;5.242;2023-02-11T09:45:25;103057.0;;;15.82;55.65
32452;BME280;45528;52.102;5.242;2023-02-11T09:48:44;103058.0;;;15.52;56.36
32452;BME280;45528;52.102;5.242;2023-02-11T09:50:27;103056.0;;;15.7;56.11
32452;BME280;45528;52.102;5.242;2023-02-11T09:52:07;103067.0;;;15.11;57.11
32452;BME280;45528;52.102;5.242;2023-02-11T09:53:50;103064.00000000001;;;15.79;55.99
32452;BME280;45528;52.102;5.242;2023-02-11T09:55:33;103061.99999999999;;;15.92;55.61
32452;BME280;45528;52.102;5.242;2023-02-11T09:58:47;103061.99999999999;;;15.58;56.16
32452;BME280;45528;52.102;5.242;2023-02-11T10:00:26;103067.0;;;15.96;55.51
32452;BME280;45528;52.102;5.242;2023-02-11T10:02:12;103076.0;;;15.77;56.04
32452;BME280;45528;52.102;5.242;2023-02-11T10:03:59;103079.0;;;16.09;55.39
32452;BME280;45528;52.102;5.242;2023-02-11T10:07:37;103083.0;;;15.64;56.18
32452;BME280;45528;52.102;5.242;2023-02-11T10:09:43;103083.99999999999;;;15.7;56.25
32452;BME280;45528;52.102;5.242;2023-02-11T10:11:33;103090.00000000001;;;16.02;55.75
32452;BME280;45528;52.102;5.242;2023-02-11T10:13:36;103090.00000000001;;;15.77;56.28
32452;BME280;45528;52.102;5.242;2023-02-11T10:15:22;103094.0;;;15.76;56.4
32452;BME280;45528;52.102;5.242;2023-02-11T10:17:10;103095.0;;;16.18;55.37
32452;BME280;45528;52.102;5.242;2023-02-11T10:19:02;103097.0;;;16.21;55.0
32452;BME280;45528;52.102;5.242;2023-02-11T10:21:05;103093.0;;;16.22;55.15
32452;BME280;45528;52.102;5.242;2023-02-11T10:22:50;103094.0;;;16.22;55.15
32452;BME280;45528;52.102;5.242;2023-02-11T10:26:11;103098.0;;;16.27;55.13
32452;BME280;45528;52.102;5.242;2023-02-11T10:27:48;103103.0;;;16.13;55.36
32452;BME280;45528;52.102;5.242;2023-02-11T10:29:33;103106.0;;;16.23;55.07
32452;BME280;45528;52.102;5.242;2023-02-11T10:31:16;103113.00000000001;;;16.06;55.4
32452;BME280;45528;52.102;5.242;2023-02-11T10:34:40;103119.0;;;16.2;55.14
32452;BME280;45528;52.102;5.242;2023-02-11T10:36:18;103119.0;;;16.22;55.0
32452;BME280;45528;52.102;5.242;2023-02-11T10:37:55;103119.0;;;15.9;55.88
32452;BME280;45528;52.102;5.242;2023-02-11T10:39:31;103111.99999999999;;;16.36;54.91
32452;BME280;45528;52.102;5.242;2023-02-11T10:42:50;103117.0;;;16.31;55.05
32452;BME280;45528;52.102;5.242;2023-02-11T10:44:31;103121.0;;;16.23;55.06
32452;BME280;45528;52.102;5.242;2023-02-11T10:46:16;103117.0;;;16.54;54.65
32452;BME280;45528;52.102;5.242;2023-02-11T10:47:54;103120.0;;;16.48;54.46
32452;BME280;45528;52.102;5.242;2023-02-11T10:51:17;103117.0;;;16.31;54.84
32452;BME280;45528;52.102;5.242;2023-02-11T10:53:11;103117.0;;;16.34;54.82